sensor_id;sensor_type;location;lat;lon;timestamp;P1;durP1;ratioP1;P2;durP2;ratioP2
7647;SDS011;3866;48.020;11.720;2023-05-19T00:01:11;6.70;;;4.70;;
7647;SDS011;3866;48.020;11.720;2023-05-19T00:03:47;9.97;;;5.60;;
7647;SDS011;3866;48.020;11.720;2023-05-19T00:06:16;10.93;;;5.07;;
7647;SDS011;3866;48.020;11.720;2023-05-19T00:08:49;7.90;;;5.07;;
7647;SDS011;3866;48.020;11.720;2023-05-19T00:11:22;11.97;;;5.73;;
7647;SDS011;3866;48.020;11.720;2023-05-19T00:13:50;9.40;;;5.50;;
7647;SDS011;3866;48.020;11.720;2023-05-19T00:16:18;9.30;;;5.13;;
7647;SDS011;3866;48.020;11.720;2023-05-19T00:18:46;10.47;;;5.13;;
7647;SDS011;3866;48.020;11.720;2023-05-19T00:21:13;11.27;;;5.00;;
7647;SDS011;3866;48.020;11.720;2023-05-19T00:23:42;9.53;;;5.30;;
7647;SDS011;3866;48.020;11.720;2023-05-19T00:26:08;11.53;;;5.57;;
7647;SDS011;3866;48.020;11.720;2023-05-19T00:28:35;10.40;;;5.17;;
7647;SDS011;3866;48.020;11.720;2023-05-19T00:31:02;7.27;;;5.40;;
7647;SDS011;3866;48.020;11.720;2023-05-19T00:33:30;10.47;;;5.10;;
7647;SDS011;3866;48.020;11.720;2023-05-19T00:35:58;11.63;;;5.40;;
7647;SDS011;3866;48.020;11.720;2023-05-19T00:38:26;6.20;;;5.23;;
7647;SDS011;3866;48.020;11.720;2023-05-19T00:40:55;8.23;;;4.97;;
7647;SDS011;3866;48.020;11.720;2023-05-19T00:43:22;7.93;;;4.83;;
7647;SDS011;3866;48.020;11.720;2023-05-19T00:45:49;12.90;;;5.87;;
7647;SDS011;3866;48.020;11.720;2023-05-19T00:48:16;7.97;;;5.17;;
7647;SDS011;3866;48.020;11.720;2023-05-19T00:50:43;11.10;;;5.10;;
7647;SDS011;3866;48.020;11.720;2023-05-19T00:53:10;11.23;;;5.37;;
7647;SDS011;3866;48.020;11.720;2023-05-19T00:55:38;10.33;;;5.37;;
7647;SDS011;3866;48.020;11.720;2023-05-19T00:58:07;12.67;;;5.50;;
7647;SDS011;3866;48.020;11.720;2023-05-19T01:00:35;8.40;;;5.10;;
7647;SDS011;3866;48.020;11.720;2023-05-19T01:03:02;8.80;;;5.30;;
7647;SDS011;3866;48.020;11.720;2023-05-19T01:05:35;9.97;;;5.77;;
7647;SDS011;3866;48.020;11.720;2023-05-19T01:08:03;11.60;;;5.43;;
7647;SDS011;3866;48.020;11.720;2023-05-19T01:10:30;10.33;;;4.70;;
7647;SDS011;3866;48.020;11.720;2023-05-19T01:12:57;10.37;;;5.13;;
7647;SDS011;3866;48.020;11.720;2023-05-19T01:15:25;9.97;;;5.17;;
7647;SDS011;3866;48.020;11.720;2023-05-19T01:17:54;10.97;;;5.60;;
7647;SDS011;3866;48.020;11.720;2023-05-19T01:20:34;9.23;;;5.87;;
7647;SDS011;3866;48.020;11.720;2023-05-19T01:23:09;10.87;;;5.77;;
7647;SDS011;3866;48.020;11.720;2023-05-19T01:26:08;10.33;;;5.17;;
7647;SDS011;3866;48.020;11.720;2023-05-19T01:31:56;10.27;;;5.23;;
7647;SDS011;3866;48.020;11.720;2023-05-19T01:34:26;13.20;;;5.47;;
7647;SDS011;3866;48.020;11.720;2023-05-19T01:36:53;11.87;;;5.43;;
7647;SDS011;3866;48.020;11.720;2023-05-19T01:39:21;9.43;;;5.27;;
7647;SDS011;3866;48.020;11.720;2023-05-19T01:41:48;12.87;;;5.53;;
7647;SDS011;3866;48.020;11.720;2023-05-19T01:44:17;12.03;;;5.93;;
7647;SDS011;3866;48.020;11.720;2023-05-19T01:46:46;9.53;;;5.60;;
7647;SDS011;3866;48.020;11.720;2023-05-19T01:49:15;10.27;;;5.97;;
7647;SDS011;3866;48.020;11.720;2023-05-19T01:51:42;10.00;;;5.80;;
7647;SDS011;3866;48.020;11.720;2023-05-19T01:54:09;8.87;;;5.47;;
7647;SDS011;3866;48.020;11.720;2023-05-19T01:56:37;14.33;;;6.10;;
7647;SDS011;3866;48.020;11.720;2023-05-19T01:59:15;12.93;;;6.00;;
7647;SDS011;3866;48.020;11.720;2023-05-19T02:01:50;12.73;;;6.90;;
7647;SDS011;3866;48.020;11.720;2023-05-19T02:04:22;11.93;;;6.20;;
7647;SDS011;3866;48.020;11.720;2023-05-19T02:06:56;13.90;;;6.33;;
7647;SDS011;3866;48.020;11.720;2023-05-19T02:09:29;9.93;;;5.37;;
7647;SDS011;3866;48.020;11.720;2023-05-19T02:12:04;10.43;;;6.13;;
7647;SDS011;3866;48.020;11.720;2023-05-19T02:14:38;11.27;;;5.50;;
7647;SDS011;3866;48.020;11.720;2023-05-19T02:17:10;9.50;;;5.50;;
7647;SDS011;3866;48.020;11.720;2023-05-19T02:19:41;12.67;;;6.27;;
7647;SDS011;3866;48.020;11.720;2023-05-19T02:22:09;14.33;;;5.60;;
7647;SDS011;3866;48.020;11.720;2023-05-19T02:24:36;10.07;;;5.67;;
7647;SDS011;3866;48.020;11.720;2023-05-19T02:27:03;14.97;;;6.03;;
7647;SDS011;3866;48.020;11.720;2023-05-19T02:29:31;8.93;;;5.07;;
7647;SDS011;3866;48.020;11.720;2023-05-19T02:31:59;12.43;;;5.90;;
7647;SDS011;3866;48.020;11.720;2023-05-19T02:34:27;10.97;;;5.53;;
7647;SDS011;3866;48.020;11.720;2023-05-19T02:36:55;14.67;;;6.30;;
7647;SDS011;3866;48.020;11.720;2023-05-19T02:39:22;11.90;;;6.20;;
7647;SDS011;3866;48.020;11.720;2023-05-19T02:41:48;11.13;;;5.80;;
7647;SDS011;3866;48.020;11.720;2023-05-19T02:44:15;14.20;;;6.60;;
7647;SDS011;3866;48.020;11.720;2023-05-19T02:46:42;13.57;;;6.00;;
7647;SDS011;3866;48.020;11.720;2023-05-19T02:49:09;9.50;;;5.53;;
7647;SDS011;3866;48.020;11.720;2023-05-19T02:51:36;14.97;;;5.63;;
7647;SDS011;3866;48.020;11.720;2023-05-19T02:54:04;11.20;;;5.57;;
7647;SDS011;3866;48.020;11.720;2023-05-19T02:56:31;14.23;;;6.23;;
7647;SDS011;3866;48.020;11.720;2023-05-19T02:58:58;10.33;;;5.80;;
7647;SDS011;3866;48.020;11.720;2023-05-19T03:01:25;13.90;;;5.80;;
7647;SDS011;3866;48.020;11.720;2023-05-19T03:03:52;13.67;;;6.00;;
7647;SDS011;3866;48.020;11.720;2023-05-19T03:06:19;8.40;;;5.23;;
7647;SDS011;3866;48.020;11.720;2023-05-19T03:08:47;10.47;;;5.60;;
7647;SDS011;3866;48.020;11.720;2023-05-19T03:11:15;6.87;;;5.37;;
7647;SDS011;3866;48.020;11.720;2023-05-19T03:13:42;12.20;;;5.67;;
7647;SDS011;3866;48.020;11.720;2023-05-19T03:16:09;8.33;;;5.33;;
7647;SDS011;3866;48.020;11.720;2023-05-19T03:18:36;12.23;;;6.17;;
7647;SDS011;3866;48.020;11.720;2023-05-19T03:21:03;16.13;;;5.73;;
7647;SDS011;3866;48.020;11.720;2023-05-19T03:23:31;8.70;;;5.40;;
7647;SDS011;3866;48.020;11.720;2023-05-19T03:25:57;10.50;;;5.70;;
7647;SDS011;3866;48.020;11.720;2023-05-19T03:28:26;10.23;;;5.90;;
7647;SDS011;3866;48.020;11.720;2023-05-19T03:30:53;10.63;;;5.77;;
7647;SDS011;3866;48.020;11.720;2023-05-19T03:33:20;14.20;;;6.20;;
7647;SDS011;3866;48.020;11.720;2023-05-19T03:35:48;12.57;;;5.23;;
7647;SDS011;3866;48.020;11.720;2023-05-19T03:38:17;9.70;;;5.50;;
7647;SDS011;3866;48.020;11.720;2023-05-19T03:40:43;12.47;;;5.87;;
7647;SDS011;3866;48.020;11.720;2023-05-19T03:43:10;12.13;;;5.77;;
7647;SDS011;3866;48.020;11.720;2023-05-19T03:45:38;13.10;;;5.37;;
7647;SDS011;3866;48.020;11.720;2023-05-19T03:48:05;10.27;;;5.67;;
7647;SDS011;3866;48.020;11.720;2023-05-19T03:50:32;10.10;;;5.87;;
7647;SDS011;3866;48.020;11.720;2023-05-19T03:52:59;11.73;;;5.77;;
7647;SDS011;3866;48.020;11.720;2023-05-19T03:55:26;11.00;;;5.13;;
7647;SDS011;3866;48.020;11.720;2023-05-19T03:57:54;13.47;;;6.00;;
7647;SDS011;3866;48.020;11.720;2023-05-19T04:00:21;11.03;;;5.73;;
7647;SDS011;3866;48.020;11.720;2023-05-19T04:02:50;7.27;;;5.43;;
7647;SDS011;3866;48.020;11.720;2023-05-19T04:05:17;14.90;;;6.53;;
7647;SDS011;3866;48.020;11.720;2023-05-19T04:07:44;16.93;;;6.43;;
7647;SDS011;3866;48.020;11.720;2023-05-19T04:10:11;15.63;;;5.93;;
7647;SDS011;3866;48.020;11.720;2023-05-19T04:12:38;11.83;;;5.43;;
7647;SDS011;3866;48.020;11.720;2023-05-19T04:15:06;14.10;;;6.37;;
7647;SDS011;3866;48.020;11.720;2023-05-19T04:17:35;9.10;;;5.60;;
7647;SDS011;3866;48.020;11.720;2023-05-19T04:20:04;11.70;;;6.27;;
7647;SDS011;3866;48.020;11.720;2023-05-19T04:22:32;16.37;;;6.47;;
7647;SDS011;3866;48.020;11.720;2023-05-19T04:24:59;13.97;;;6.57;;
7647;SDS011;3866;48.020;11.720;2023-05-19T04:27:27;11.97;;;5.60;;
7647;SDS011;3866;48.020;11.720;2023-05-19T04:29:56;10.70;;;5.70;;
7647;SDS011;3866;48.020;11.720;2023-05-19T04:32:23;8.97;;;5.27;;
7647;SDS011;3866;48.020;11.720;2023-05-19T04:34:50;8.37;;;5.67;;
7647;SDS011;3866;48.020;11.720;2023-05-19T04:37:18;11.37;;;6.30;;
7647;SDS011;3866;48.020;11.720;2023-05-19T04:39:45;8.67;;;5.37;;
7647;SDS011;3866;48.020;11.720;2023-05-19T04:42:12;11.77;;;5.67;;
7647;SDS011;3866;48.020;11.720;2023-05-19T04:44:43;9.43;;;5.60;;
7647;SDS011;3866;48.020;11.720;2023-05-19T04:47:10;10.90;;;6.00;;
7647;SDS011;3866;48.020;11.720;2023-05-19T04:49:37;13.67;;;6.30;;
7647;SDS011;3866;48.020;11.720;2023-05-19T04:52:05;16.67;;;6.20;;
7647;SDS011;3866;48.020;11.720;2023-05-19T04:54:36;9.67;;;5.40;;
7647;SDS011;3866;48.020;11.720;2023-05-19T04:57:04;10.77;;;5.80;;
7647;SDS011;3866;48.020;11.720;2023-05-19T04:59:31;11.70;;;5.80;;
7647;SDS011;3866;48.020;11.720;2023-05-19T05:01:58;9.70;;;5.73;;
7647;SDS011;3866;48.020;11.720;2023-05-19T05:04:25;12.03;;;4.93;;
7647;SDS011;3866;48.020;11.720;2023-05-19T05:06:52;8.43;;;5.10;;
7647;SDS011;3866;48.020;11.720;2023-05-19T05:09:19;9.63;;;5.50;;
7647;SDS011;3866;48.020;11.720;2023-05-19T05:11:47;11.87;;;5.67;;
7647;SDS011;3866;48.020;11.720;2023-05-19T05:14:15;12.30;;;5.97;;
7647;SDS011;3866;48.020;11.720;2023-05-19T05:16:43;11.57;;;6.03;;
7647;SDS011;3866;48.020;11.720;2023-05-19T05:19:10;16.17;;;5.37;;
7647;SDS011;3866;48.020;11.720;2023-05-19T05:21:37;6.80;;;4.83;;
7647;SDS011;3866;48.020;11.720;2023-05-19T05:24:05;11.07;;;5.20;;
7647;SDS011;3866;48.020;11.720;2023-05-19T05:26:33;8.40;;;4.87;;
7647;SDS011;3866;48.020;11.720;2023-05-19T05:29:02;10.93;;;5.07;;
7647;SDS011;3866;48.020;11.720;2023-05-19T05:31:29;9.43;;;5.87;;
7647;SDS011;3866;48.020;11.720;2023-05-19T05:33:56;11.67;;;5.30;;
7647;SDS011;3866;48.020;11.720;2023-05-19T05:36:23;12.37;;;5.23;;
7647;SDS011;3866;48.020;11.720;2023-05-19T05:38:50;8.70;;;4.73;;
7647;SDS011;3866;48.020;11.720;2023-05-19T05:41:17;10.97;;;5.30;;
7647;SDS011;3866;48.020;11.720;2023-05-19T05:43:45;8.87;;;5.30;;
7647;SDS011;3866;48.020;11.720;2023-05-19T05:46:13;10.60;;;5.57;;
7647;SDS011;3866;48.020;11.720;2023-05-19T05:48:40;9.53;;;5.47;;
7647;SDS011;3866;48.020;11.720;2023-05-19T05:51:08;9.17;;;5.30;;
7647;SDS011;3866;48.020;11.720;2023-05-19T05:53:36;9.90;;;5.60;;
7647;SDS011;3866;48.020;11.720;2023-05-19T05:56:07;8.87;;;5.70;;
7647;SDS011;3866;48.020;11.720;2023-05-19T05:58:35;11.80;;;5.83;;
7647;SDS011;3866;48.020;11.720;2023-05-19T06:01:04;10.57;;;5.70;;
7647;SDS011;3866;48.020;11.720;2023-05-19T06:03:36;9.33;;;5.57;;
7647;SDS011;3866;48.020;11.720;2023-05-19T06:06:04;7.50;;;5.43;;
7647;SDS011;3866;48.020;11.720;2023-05-19T06:08:31;8.47;;;5.47;;
7647;SDS011;3866;48.020;11.720;2023-05-19T06:10:57;8.60;;;4.80;;
7647;SDS011;3866;48.020;11.720;2023-05-19T06:13:24;10.97;;;4.83;;
7647;SDS011;3866;48.020;11.720;2023-05-19T06:15:51;7.90;;;4.80;;
7647;SDS011;3866;48.020;11.720;2023-05-19T06:18:18;8.93;;;4.80;;
7647;SDS011;3866;48.020;11.720;2023-05-19T06:20:46;10.37;;;5.40;;
7647;SDS011;3866;48.020;11.720;2023-05-19T06:23:13;7.47;;;5.30;;
7647;SDS011;3866;48.020;11.720;2023-05-19T06:25:40;7.97;;;5.73;;
7647;SDS011;3866;48.020;11.720;2023-05-19T06:28:07;8.50;;;5.17;;
7647;SDS011;3866;48.020;11.720;2023-05-19T06:30:34;6.70;;;5.40;;
7647;SDS011;3866;48.020;11.720;2023-05-19T06:33:01;5.87;;;4.47;;
7647;SDS011;3866;48.020;11.720;2023-05-19T06:35:28;8.53;;;5.17;;
7647;SDS011;3866;48.020;11.720;2023-05-19T06:37:56;9.60;;;5.43;;
7647;SDS011;3866;48.020;11.720;2023-05-19T06:40:23;7.50;;;5.07;;
7647;SDS011;3866;48.020;11.720;2023-05-19T06:42:50;8.33;;;5.10;;
7647;SDS011;3866;48.020;11.720;2023-05-19T06:45:17;8.37;;;5.00;;
7647;SDS011;3866;48.020;11.720;2023-05-19T06:47:45;9.23;;;5.23;;
7647;SDS011;3866;48.020;11.720;2023-05-19T06:50:12;8.00;;;5.43;;
7647;SDS011;3866;48.020;11.720;2023-05-19T06:52:39;10.47;;;4.73;;
7647;SDS011;3866;48.020;11.720;2023-05-19T06:55:08;7.17;;;4.70;;
7647;SDS011;3866;48.020;11.720;2023-05-19T06:57:35;7.17;;;5.00;;
7647;SDS011;3866;48.020;11.720;2023-05-19T07:00:02;7.87;;;4.33;;
7647;SDS011;3866;48.020;11.720;2023-05-19T07:02:30;8.47;;;5.33;;
7647;SDS011;3866;48.020;11.720;2023-05-19T07:04:57;8.67;;;5.03;;
7647;SDS011;3866;48.020;11.720;2023-05-19T07:07:24;7.60;;;4.37;;
7647;SDS011;3866;48.020;11.720;2023-05-19T07:09:51;11.37;;;4.90;;
7647;SDS011;3866;48.020;11.720;2023-05-19T07:12:20;6.83;;;4.33;;
7647;SDS011;3866;48.020;11.720;2023-05-19T07:14:46;4.40;;;3.73;;
7647;SDS011;3866;48.020;11.720;2023-05-19T07:17:13;4.77;;;3.73;;
7647;SDS011;3866;48.020;11.720;2023-05-19T07:19:40;4.10;;;3.67;;
7647;SDS011;3866;48.020;11.720;2023-05-19T07:22:07;4.63;;;3.80;;
7647;SDS011;3866;48.020;11.720;2023-05-19T07:24:34;7.77;;;4.27;;
7647;SDS011;3866;48.020;11.720;2023-05-19T07:27:01;6.00;;;4.37;;
7647;SDS011;3866;48.020;11.720;2023-05-19T07:29:29;8.17;;;4.40;;
7647;SDS011;3866;48.020;11.720;2023-05-19T07:31:56;7.27;;;4.27;;
7647;SDS011;3866;48.020;11.720;2023-05-19T07:34:23;7.07;;;4.03;;
7647;SDS011;3866;48.020;11.720;2023-05-19T07:36:50;7.33;;;4.23;;
7647;SDS011;3866;48.020;11.720;2023-05-19T07:39:17;7.17;;;4.50;;
7647;SDS011;3866;48.020;11.720;2023-05-19T07:41:44;7.37;;;3.87;;
7647;SDS011;3866;48.020;11.720;2023-05-19T07:44:16;8.30;;;4.47;;
7647;SDS011;3866;48.020;11.720;2023-05-19T07:46:44;5.33;;;4.57;;
7647;SDS011;3866;48.020;11.720;2023-05-19T07:49:11;6.97;;;4.13;;
7647;SDS011;3866;48.020;11.720;2023-05-19T07:51:38;5.77;;;4.00;;
7647;SDS011;3866;48.020;11.720;2023-05-19T07:54:07;5.27;;;3.80;;
7647;SDS011;3866;48.020;11.720;2023-05-19T07:56:34;5.77;;;4.27;;
7647;SDS011;3866;48.020;11.720;2023-05-19T07:59:02;6.03;;;4.07;;
7647;SDS011;3866;48.020;11.720;2023-05-19T08:01:29;6.53;;;4.00;;
7647;SDS011;3866;48.020;11.720;2023-05-19T08:03:57;5.73;;;3.73;;
7647;SDS011;3866;48.020;11.720;2023-05-19T08:06:25;12.33;;;5.93;;
7647;SDS011;3866;48.020;11.720;2023-05-19T08:08:52;6.73;;;4.27;;
7647;SDS011;3866;48.020;11.720;2023-05-19T08:11:19;5.27;;;3.53;;
7647;SDS011;3866;48.020;11.720;2023-05-19T08:13:46;5.30;;;3.83;;
7647;SDS011;3866;48.020;11.720;2023-05-19T08:16:13;7.13;;;4.40;;
7647;SDS011;3866;48.020;11.720;2023-05-19T08:18:40;6.37;;;4.83;;
7647;SDS011;3866;48.020;11.720;2023-05-19T08:21:08;7.13;;;4.53;;
7647;SDS011;3866;48.020;11.720;2023-05-19T08:23:35;4.67;;;4.07;;
7647;SDS011;3866;48.020;11.720;2023-05-19T08:26:02;5.70;;;3.93;;
7647;SDS011;3866;48.020;11.720;2023-05-19T08:28:29;6.87;;;3.90;;
7647;SDS011;3866;48.020;11.720;2023-05-19T08:30:56;8.60;;;4.23;;
7647;SDS011;3866;48.020;11.720;2023-05-19T08:33:23;8.70;;;3.60;;
7647;SDS011;3866;48.020;11.720;2023-05-19T08:35:50;6.17;;;3.70;;
7647;SDS011;3866;48.020;11.720;2023-05-19T08:38:20;3.57;;;3.10;;
7647;SDS011;3866;48.020;11.720;2023-05-19T08:40:47;5.83;;;4.10;;
7647;SDS011;3866;48.020;11.720;2023-05-19T08:43:14;5.67;;;3.60;;
7647;SDS011;3866;48.020;11.720;2023-05-19T08:45:42;4.67;;;3.33;;
7647;SDS011;3866;48.020;11.720;2023-05-19T08:48:11;6.10;;;3.53;;
7647;SDS011;3866;48.020;11.720;2023-05-19T08:50:39;6.87;;;3.97;;
7647;SDS011;3866;48.020;11.720;2023-05-19T08:53:09;6.30;;;3.83;;
7647;SDS011;3866;48.020;11.720;2023-05-19T08:55:43;4.80;;;3.83;;
7647;SDS011;3866;48.020;11.720;2023-05-19T08:58:15;6.03;;;4.23;;
7647;SDS011;3866;48.020;11.720;2023-05-19T09:00:45;4.60;;;3.87;;
7647;SDS011;3866;48.020;11.720;2023-05-19T09:03:13;3.40;;;3.10;;
7647;SDS011;3866;48.020;11.720;2023-05-19T09:05:42;5.73;;;3.63;;
7647;SDS011;3866;48.020;11.720;2023-05-19T09:08:09;4.80;;;3.10;;
7647;SDS011;3866;48.020;11.720;2023-05-19T09:10:36;4.13;;;3.37;;
7647;SDS011;3866;48.020;11.720;2023-05-19T09:13:05;4.70;;;3.50;;
7647;SDS011;3866;48.020;11.720;2023-05-19T09:15:32;5.10;;;3.63;;
7647;SDS011;3866;48.020;11.720;2023-05-19T09:18:07;5.67;;;3.87;;
7647;SDS011;3866;48.020;11.720;2023-05-19T09:20:38;6.73;;;3.80;;
7647;SDS011;3866;48.020;11.720;2023-05-19T09:23:06;7.17;;;3.87;;
7647;SDS011;3866;48.020;11.720;2023-05-19T09:25:38;4.27;;;3.70;;
7647;SDS011;3866;48.020;11.720;2023-05-19T09:28:13;4.27;;;3.57;;
7647;SDS011;3866;48.020;11.720;2023-05-19T09:30:40;5.20;;;3.80;;
7647;SDS011;3866;48.020;11.720;2023-05-19T09:33:07;5.13;;;3.97;;
7647;SDS011;3866;48.020;11.720;2023-05-19T09:35:34;8.17;;;4.23;;
7647;SDS011;3866;48.020;11.720;2023-05-19T09:38:01;6.97;;;4.13;;
7647;SDS011;3866;48.020;11.720;2023-05-19T09:40:28;5.23;;;3.93;;
7647;SDS011;3866;48.020;11.720;2023-05-19T09:42:56;7.13;;;3.90;;
7647;SDS011;3866;48.020;11.720;2023-05-19T09:45:25;5.63;;;4.20;;
7647;SDS011;3866;48.020;11.720;2023-05-19T09:47:53;5.33;;;3.73;;
7647;SDS011;3866;48.020;11.720;2023-05-19T09:50:20;6.83;;;4.60;;
7647;SDS011;3866;48.020;11.720;2023-05-19T09:52:48;6.27;;;4.67;;
7647;SDS011;3866;48.020;11.720;2023-05-19T09:55:15;4.30;;;3.90;;
7647;SDS011;3866;48.020;11.720;2023-05-19T09:57:44;7.40;;;4.30;;
7647;SDS011;3866;48.020;11.720;2023-05-19T10:00:11;5.50;;;3.97;;
7647;SDS011;3866;48.020;11.720;2023-05-19T10:02:41;7.40;;;5.17;;
7647;SDS011;3866;48.020;11.720;2023-05-19T10:05:10;6.07;;;5.43;;
7647;SDS011;3866;48.020;11.720;2023-05-19T10:07:40;6.50;;;5.73;;
7647;SDS011;3866;48.020;11.720;2023-05-19T10:10:10;10.87;;;6.60;;
7647;SDS011;3866;48.020;11.720;2023-05-19T10:12:38;8.17;;;5.73;;
7647;SDS011;3866;48.020;11.720;2023-05-19T10:15:07;6.40;;;5.40;;
7647;SDS011;3866;48.020;11.720;2023-05-19T10:17:36;8.33;;;6.10;;
7647;SDS011;3866;48.020;11.720;2023-05-19T10:20:08;8.97;;;5.87;;
7647;SDS011;3866;48.020;11.720;2023-05-19T10:22:36;7.37;;;6.00;;
7647;SDS011;3866;48.020;11.720;2023-05-19T10:25:04;7.63;;;5.50;;
7647;SDS011;3866;48.020;11.720;2023-05-19T10:27:33;8.20;;;5.97;;
7647;SDS011;3866;48.020;11.720;2023-05-19T10:30:06;10.53;;;6.23;;
7647;SDS011;3866;48.020;11.720;2023-05-19T10:32:37;6.73;;;6.13;;
7647;SDS011;3866;48.020;11.720;2023-05-19T10:38:14;7.77;;;5.70;;
7647;SDS011;3866;48.020;11.720;2023-05-19T10:40:50;10.10;;;6.63;;
7647;SDS011;3866;48.020;11.720;2023-05-19T10:43:29;6.97;;;5.67;;
7647;SDS011;3866;48.020;11.720;2023-05-19T10:46:11;9.10;;;6.53;;
7647;SDS011;3866;48.020;11.720;2023-05-19T10:48:38;6.97;;;4.83;;
7647;SDS011;3866;48.020;11.720;2023-05-19T10:51:09;9.27;;;5.70;;
7647;SDS011;3866;48.020;11.720;2023-05-19T10:53:40;7.37;;;5.80;;
7647;SDS011;3866;48.020;11.720;2023-05-19T10:56:10;7.70;;;6.90;;
7647;SDS011;3866;48.020;11.720;2023-05-19T10:58:47;7.50;;;5.67;;
7647;SDS011;3866;48.020;11.720;2023-05-19T11:01:16;6.03;;;5.40;;
7647;SDS011;3866;48.020;11.720;2023-05-19T11:03:45;10.70;;;5.80;;
7647;SDS011;3866;48.020;11.720;2023-05-19T11:06:17;8.00;;;5.23;;
7647;SDS011;3866;48.020;11.720;2023-05-19T11:09:10;6.70;;;5.30;;
7647;SDS011;3866;48.020;11.720;2023-05-19T11:11:43;6.43;;;5.37;;
7647;SDS011;3866;48.020;11.720;2023-05-19T11:14:11;6.67;;;5.50;;
7647;SDS011;3866;48.020;11.720;2023-05-19T11:16:39;7.80;;;5.67;;
7647;SDS011;3866;48.020;11.720;2023-05-19T11:19:07;10.63;;;5.83;;
7647;SDS011;3866;48.020;11.720;2023-05-19T11:21:40;9.80;;;5.53;;
7647;SDS011;3866;48.020;11.720;2023-05-19T11:24:09;6.60;;;5.90;;
7647;SDS011;3866;48.020;11.720;2023-05-19T11:26:56;7.87;;;6.33;;
7647;SDS011;3866;48.020;11.720;2023-05-19T11:29:23;7.20;;;6.50;;
7647;SDS011;3866;48.020;11.720;2023-05-19T11:31:50;8.10;;;6.17;;
7647;SDS011;3866;48.020;11.720;2023-05-19T11:34:17;9.77;;;6.50;;
7647;SDS011;3866;48.020;11.720;2023-05-19T11:36:45;7.57;;;6.43;;
7647;SDS011;3866;48.020;11.720;2023-05-19T11:39:13;8.33;;;6.27;;
7647;SDS011;3866;48.020;11.720;2023-05-19T11:41:42;12.03;;;6.27;;
7647;SDS011;3866;48.020;11.720;2023-05-19T11:44:09;10.97;;;6.63;;
7647;SDS011;3866;48.020;11.720;2023-05-19T11:46:36;7.00;;;6.10;;
7647;SDS011;3866;48.020;11.720;2023-05-19T11:49:03;8.27;;;6.47;;
7647;SDS011;3866;48.020;11.720;2023-05-19T11:51:31;9.03;;;6.23;;
7647;SDS011;3866;48.020;11.720;2023-05-19T11:54:00;6.67;;;6.00;;
7647;SDS011;3866;48.020;11.720;2023-05-19T11:56:33;6.30;;;5.40;;
7647;SDS011;3866;48.020;11.720;2023-05-19T11:59:04;6.13;;;5.47;;
7647;SDS011;3866;48.020;11.720;2023-05-19T12:01:31;7.23;;;6.23;;
7647;SDS011;3866;48.020;11.720;2023-05-19T12:03:59;7.93;;;6.43;;
7647;SDS011;3866;48.020;11.720;2023-05-19T12:06:26;12.90;;;7.57;;
7647;SDS011;3866;48.020;11.720;2023-05-19T12:08:53;8.77;;;7.80;;
7647;SDS011;3866;48.020;11.720;2023-05-19T12:11:20;9.37;;;7.60;;
7647;SDS011;3866;48.020;11.720;2023-05-19T12:13:50;8.37;;;7.53;;
7647;SDS011;3866;48.020;11.720;2023-05-19T12:16:18;8.03;;;7.23;;
7647;SDS011;3866;48.020;11.720;2023-05-19T12:18:45;12.77;;;9.07;;
7647;SDS011;3866;48.020;11.720;2023-05-19T12:21:12;9.93;;;8.93;;
7647;SDS011;3866;48.020;11.720;2023-05-19T12:23:39;10.70;;;8.80;;
7647;SDS011;3866;48.020;11.720;2023-05-19T12:26:07;10.07;;;8.87;;
7647;SDS011;3866;48.020;11.720;2023-05-19T12:28:35;10.40;;;9.40;;
7647;SDS011;3866;48.020;11.720;2023-05-19T12:31:03;10.60;;;9.10;;
7647;SDS011;3866;48.020;11.720;2023-05-19T12:33:31;9.43;;;8.50;;
7647;SDS011;3866;48.020;11.720;2023-05-19T12:35:58;12.30;;;9.17;;
7647;SDS011;3866;48.020;11.720;2023-05-19T12:38:25;10.93;;;9.27;;
7647;SDS011;3866;48.020;11.720;2023-05-19T12:40:52;12.43;;;9.57;;
7647;SDS011;3866;48.020;11.720;2023-05-19T12:43:23;13.03;;;10.13;;
7647;SDS011;3866;48.020;11.720;2023-05-19T12:45:50;14.20;;;9.17;;
7647;SDS011;3866;48.020;11.720;2023-05-19T12:48:20;11.43;;;9.63;;
7647;SDS011;3866;48.020;11.720;2023-05-19T12:50:47;10.77;;;8.70;;
7647;SDS011;3866;48.020;11.720;2023-05-19T12:53:18;9.13;;;8.23;;
7647;SDS011;3866;48.020;11.720;2023-05-19T12:55:45;11.23;;;8.93;;
7647;SDS011;3866;48.020;11.720;2023-05-19T12:58:12;11.57;;;9.00;;
7647;SDS011;3866;48.020;11.720;2023-05-19T13:00:40;10.77;;;8.63;;
7647;SDS011;3866;48.020;11.720;2023-05-19T13:03:13;12.33;;;9.17;;
7647;SDS011;3866;48.020;11.720;2023-05-19T13:05:43;11.20;;;8.53;;
7647;SDS011;3866;48.020;11.720;2023-05-19T13:08:11;10.23;;;9.30;;
7647;SDS011;3866;48.020;11.720;2023-05-19T13:10:39;10.47;;;8.90;;
7647;SDS011;3866;48.020;11.720;2023-05-19T13:13:07;11.50;;;8.43;;
7647;SDS011;3866;48.020;11.720;2023-05-19T13:15:36;11.83;;;9.80;;
7647;SDS011;3866;48.020;11.720;2023-05-19T13:18:04;10.43;;;9.03;;
7647;SDS011;3866;48.020;11.720;2023-05-19T13:20:33;14.50;;;9.30;;
7647;SDS011;3866;48.020;11.720;2023-05-19T13:23:01;9.50;;;8.50;;
7647;SDS011;3866;48.020;11.720;2023-05-19T13:25:28;11.07;;;9.10;;
7647;SDS011;3866;48.020;11.720;2023-05-19T13:27:56;11.67;;;9.10;;
7647;SDS011;3866;48.020;11.720;2023-05-19T13:30:25;10.37;;;9.37;;
7647;SDS011;3866;48.020;11.720;2023-05-19T13:32:52;11.10;;;8.50;;
7647;SDS011;3866;48.020;11.720;2023-05-19T13:35:19;10.73;;;8.77;;
7647;SDS011;3866;48.020;11.720;2023-05-19T13:37:48;10.07;;;8.77;;
7647;SDS011;3866;48.020;11.720;2023-05-19T13:40:16;9.23;;;7.73;;
7647;SDS011;3866;48.020;11.720;2023-05-19T13:42:43;10.83;;;8.60;;
7647;SDS011;3866;48.020;11.720;2023-05-19T13:45:10;9.07;;;8.07;;
7647;SDS011;3866;48.020;11.720;2023-05-19T13:47:37;9.73;;;8.73;;
7647;SDS011;3866;48.020;11.720;2023-05-19T13:50:05;9.17;;;8.13;;
7647;SDS011;3866;48.020;11.720;2023-05-19T13:52:32;11.00;;;9.53;;
7647;SDS011;3866;48.020;11.720;2023-05-19T13:54:59;8.90;;;8.10;;
7647;SDS011;3866;48.020;11.720;2023-05-19T13:57:27;9.00;;;8.07;;
7647;SDS011;3866;48.020;11.720;2023-05-19T13:59:54;10.57;;;8.00;;
7647;SDS011;3866;48.020;11.720;2023-05-19T14:02:21;10.87;;;8.30;;
7647;SDS011;3866;48.020;11.720;2023-05-19T14:04:48;9.80;;;8.80;;
7647;SDS011;3866;48.020;11.720;2023-05-19T14:07:16;10.53;;;8.17;;
7647;SDS011;3866;48.020;11.720;2023-05-19T14:09:43;8.87;;;7.77;;
7647;SDS011;3866;48.020;11.720;2023-05-19T14:12:10;9.60;;;8.60;;
7647;SDS011;3866;48.020;11.720;2023-05-19T14:14:39;10.87;;;8.97;;
7647;SDS011;3866;48.020;11.720;2023-05-19T14:17:06;9.57;;;8.23;;
7647;SDS011;3866;48.020;11.720;2023-05-19T14:19:32;8.90;;;7.97;;
7647;SDS011;3866;48.020;11.720;2023-05-19T14:21:59;10.33;;;8.13;;
7647;SDS011;3866;48.020;11.720;2023-05-19T14:24:26;9.53;;;8.50;;
7647;SDS011;3866;48.020;11.720;2023-05-19T14:26:53;12.47;;;8.50;;
7647;SDS011;3866;48.020;11.720;2023-05-19T14:29:20;11.00;;;8.80;;
7647;SDS011;3866;48.020;11.720;2023-05-19T14:31:48;10.70;;;8.87;;
7647;SDS011;3866;48.020;11.720;2023-05-19T14:34:15;11.40;;;9.73;;
7647;SDS011;3866;48.020;11.720;2023-05-19T14:36:44;10.33;;;9.13;;
7647;SDS011;3866;48.020;11.720;2023-05-19T14:39:11;14.33;;;10.33;;
7647;SDS011;3866;48.020;11.720;2023-05-19T14:41:38;10.97;;;9.50;;
7647;SDS011;3866;48.020;11.720;2023-05-19T14:44:05;12.53;;;9.20;;
7647;SDS011;3866;48.020;11.720;2023-05-19T14:46:32;10.23;;;9.23;;
7647;SDS011;3866;48.020;11.720;2023-05-19T14:49:01;12.13;;;10.07;;
7647;SDS011;3866;48.020;11.720;2023-05-19T14:51:30;10.30;;;9.00;;
7647;SDS011;3866;48.020;11.720;2023-05-19T14:53:57;12.80;;;8.50;;
7647;SDS011;3866;48.020;11.720;2023-05-19T14:56:24;13.20;;;9.67;;
7647;SDS011;3866;48.020;11.720;2023-05-19T14:58:51;10.87;;;8.77;;
7647;SDS011;3866;48.020;11.720;2023-05-19T15:01:18;10.17;;;9.17;;
7647;SDS011;3866;48.020;11.720;2023-05-19T15:03:45;11.50;;;9.30;;
7647;SDS011;3866;48.020;11.720;2023-05-19T15:06:13;12.87;;;9.30;;
7647;SDS011;3866;48.020;11.720;2023-05-19T15:08:40;10.43;;;9.07;;